Odonnell, Texas
Current Conditions -  °F | °C
As of 8:53 PM on Friday 28 Nov 2014 (Local Time) from KLBB Reporting Station
Scattered Clouds Scattered Clouds  
Wind Chill: 55°   Ceiling: Unl
Heat Index: 55°   Visibility: 10mi
Dew Point: 25°   Wind: 12mph
Humidity: 31%   Direction: 220°SW
Pressure: 29.96"   Gusts: NA
Location:  32.98°N, 101.89°W
Report Text: KLBB 290253Z 22010KT 10SM SCT300 13/M04 A2996 RMK AO2 SLP129 T01281039 50000
Loading
Personal Weather Stations






























Interactive Weather Map New forecast layout! Learn more

10-Day Weather Forecast

Advertisements
Track Severe Weather on mobile